CheckWX is a tool to help pilots better visualize weather data.  It is not intended as a substitute for an official pre-flight weather briefing.

00:24:05 UTC

KOSH METAR
Wittman Regional Airport
Oshkosh, Wisconsin, USA
Current

31 mins ago

KOSH 202353Z 13007KT 10SM CLR 15/M02 A2980 RMK AO2 SLP093 T01501017 10167 20133 55009
Observed
Apr-20 @ 23:53 UTC
Wind
  • 130° at 7 KTS
Visibility
10 SM
Flight Rules
VFR
Cloud Levels
  • Clear skies
Temperature
15°C / 59°F
Dewpoint
-2°C / 28°F
Humidity
31%
Altimeter
29.8" Hg
Pressure
1009.12 hPa
Previous

2 hours ago

KOSH 202253Z 11005KT 10SM CLR 16/M03 A2979 RMK AO2 SLP093 T01561033
Observed
Apr-20 @ 22:53 UTC
Wind
  • 110° at 5 KTS
Visibility
10 SM
Flight Rules
VFR
Cloud Levels
  • Clear skies
Temperature
16°C / 61°F
Dewpoint
-3°C / 27°F
Humidity
27%
Altimeter
29.79" Hg
Pressure
1008.82 hPa
Previous

3 hours ago

KOSH 202153Z 05003KT 10SM CLR 16/M04 A2981 RMK AO2 SLP097 T01561044
Observed
Apr-20 @ 21:53 UTC
Wind
  • 050° at 3 KTS
Visibility
10 SM
Flight Rules
VFR
Cloud Levels
  • Clear skies
Temperature
16°C / 61°F
Dewpoint
-4°C / 25°F
Humidity
25%
Altimeter
29.81" Hg
Pressure
1009.52 hPa